createdAt,value
2022-09-07T00:01:36.632Z,73.61
2022-09-07T00:06:58.354Z,72.81
2022-09-07T00:12:20.107Z,71.16
2022-09-07T00:17:42.079Z,69.28
2022-09-07T00:23:03.836Z,68.38
2022-09-07T00:28:25.609Z,69.61
2022-09-07T00:33:49.281Z,68.97
2022-09-07T00:39:11.094Z,67.68
2022-09-07T00:45:14.351Z,68.08
2022-09-07T00:50:45.309Z,68.80
2022-09-07T00:56:09.025Z,67.47
2022-09-07T01:01:32.209Z,69.32
2022-09-07T01:06:55.332Z,70.19
2022-09-07T01:12:17.107Z,70.43
2022-09-07T01:18:06.767Z,71.02
2022-09-07T01:23:47.082Z,70.91
2022-09-07T01:29:19.543Z,71.59
2022-09-07T01:34:49.658Z,71.01
2022-09-07T01:40:20.781Z,69.96
2022-09-07T01:45:44.494Z,69.97
2022-09-07T01:51:06.370Z,69.81
2022-09-07T01:56:35.461Z,69.28
2022-09-07T02:02:28.396Z,69.14
2022-09-07T02:08:03.007Z,69.71
2022-09-07T02:13:41.977Z,69.85
2022-09-07T02:19:08.687Z,69.81
2022-09-07T02:24:35.338Z,70.11
2022-09-07T02:29:57.831Z,70.50
2022-09-07T02:35:19.581Z,71.46
2022-09-07T02:40:41.354Z,72.08
2022-09-07T02:46:25.861Z,72.55
2022-09-07T02:52:12.199Z,71.87
2022-09-07T02:58:11.136Z,73.56
2022-09-07T03:04:05.840Z,73.97
2022-09-07T03:09:31.491Z,74.04
2022-09-07T03:14:53.424Z,73.67
2022-09-07T03:20:19.137Z,73.51
2022-09-07T03:25:40.893Z,72.62
2022-09-07T03:31:03.035Z,72.79
2022-09-07T03:36:24.789Z,73.72
2022-09-07T03:41:46.719Z,73.47
2022-09-07T03:47:08.561Z,73.14
2022-09-07T03:52:30.418Z,73.74
2022-09-07T03:57:52.367Z,74.70
2022-09-07T04:03:14.078Z,75.27
2022-09-07T04:08:38.064Z,75.76
2022-09-07T04:13:59.861Z,77.20
2022-09-07T04:19:21.843Z,76.97
2022-09-07T04:24:43.670Z,76.87
2022-09-07T04:30:06.184Z,77.74
2022-09-07T04:35:27.927Z,78.94
2022-09-07T04:40:49.657Z,79.28
2022-09-07T04:46:46.963Z,78.09
2022-09-07T04:52:08.757Z,79.05
2022-09-07T04:57:30.507Z,80.37
2022-09-07T05:02:52.270Z,80.38
2022-09-07T05:08:14.033Z,80.23
2022-09-07T05:13:36.199Z,79.01
2022-09-07T05:19:02.943Z,78.66
2022-09-07T05:24:26.836Z,79.45
2022-09-07T05:30:04.996Z,80.49
2022-09-07T05:35:27.999Z,81.20
2022-09-07T05:40:49.740Z,81.20
2022-09-07T05:46:12.113Z,80.69
2022-09-07T05:51:34.091Z,81.16
2022-09-07T05:56:55.829Z,80.39
2022-09-07T06:02:17.659Z,80.50
2022-09-07T06:07:39.717Z,80.49
2022-09-07T06:13:01.845Z,81.06
2022-09-07T06:18:23.578Z,80.44
2022-09-07T06:23:46.902Z,78.72
2022-09-07T06:29:09.317Z,80.38
2022-09-07T06:34:31.096Z,79.97
2022-09-07T06:39:52.935Z,79.61
2022-09-07T06:45:14.722Z,77.45
2022-09-07T06:50:36.610Z,76.81
2022-09-07T06:55:58.911Z,76.72
2022-09-07T07:01:21.319Z,76.85
2022-09-07T07:06:43.153Z,76.88
2022-09-07T07:12:04.981Z,77.63
2022-09-07T07:17:27.224Z,77.70
2022-09-07T07:22:52.346Z,78.42
2022-09-07T07:33:55.930Z,78.88
2022-09-07T07:50:41.540Z,74.29
2022-09-07T07:56:05.083Z,73.94
2022-09-07T08:01:26.950Z,73.12
2022-09-07T08:06:48.699Z,73.27
2022-09-07T08:12:13.088Z,73.52
2022-09-07T08:17:34.932Z,72.83
2022-09-07T08:22:56.622Z,72.96
2022-09-07T08:28:19.501Z,72.37
2022-09-07T08:33:41.297Z,71.75
2022-09-07T08:39:03.387Z,71.40
2022-09-07T08:44:33.188Z,71.32
2022-09-07T08:50:02.755Z,70.58
2022-09-07T08:55:38.957Z,69.22
2022-09-07T09:07:14.203Z,70.30
2022-09-07T09:12:52.187Z,69.23
2022-09-07T09:18:23.143Z,68.24
2022-09-07T09:23:49.875Z,68.47
2022-09-07T09:29:17.756Z,69.01
2022-09-07T09:34:39.474Z,66.61
2022-09-07T09:40:02.753Z,67.34
2022-09-07T09:45:28.564Z,68.94
2022-09-07T09:56:38.202Z,65.82
2022-09-07T10:08:17.823Z,65.84
2022-09-07T10:13:55.156Z,65.75
2022-09-07T10:19:36.916Z,64.93
2022-09-07T10:25:00.800Z,65.15
2022-09-07T10:30:22.490Z,64.94
2022-09-07T10:35:54.361Z,65.54
2022-09-07T10:41:20.114Z,64.71
2022-09-07T10:47:19.090Z,63.54
2022-09-07T10:52:48.459Z,64.01
2022-09-07T10:59:01.563Z,64.58
2022-09-07T11:04:28.761Z,65.39
2022-09-07T11:09:58.962Z,66.24
2022-09-07T11:15:28.619Z,66.13
2022-09-07T11:20:56.551Z,67.42
2022-09-07T11:26:36.989Z,67.84
2022-09-07T11:32:06.300Z,65.56
2022-09-07T11:37:54.493Z,63.76
2022-09-07T11:43:30.802Z,61.31
2022-09-07T11:48:55.951Z,60.78
2022-09-07T11:54:29.709Z,59.73
2022-09-07T12:00:13.023Z,58.50
2022-09-07T12:05:37.899Z,58.29
2022-09-07T12:11:05.309Z,57.59
2022-09-07T12:16:39.093Z,56.31
2022-09-07T12:22:01.167Z,57.10
2022-09-07T12:27:22.857Z,57.21
2022-09-07T12:32:56.169Z,55.63
2022-09-07T12:38:18.435Z,55.26
2022-09-07T12:43:43.173Z,53.77
2022-09-07T12:49:17.049Z,54.57
2022-09-07T12:55:04.375Z,53.26
2022-09-07T13:00:44.940Z,50.60
2022-09-07T13:12:56.809Z,50.27
2022-09-07T13:18:28.570Z,50.36
2022-09-07T13:30:15.124Z,49.93
2022-09-07T13:35:37.098Z,48.70
2022-09-07T13:41:11.851Z,49.58
2022-09-07T13:47:02.621Z,48.69
2022-09-07T13:52:29.470Z,48.86
2022-09-07T13:58:10.850Z,48.18
2022-09-07T14:03:39.261Z,48.05
2022-09-07T14:09:14.770Z,47.91
2022-09-07T14:14:36.562Z,47.69
2022-09-07T14:19:59.693Z,48.40
2022-09-07T14:25:22.799Z,46.45
2022-09-07T14:30:44.882Z,45.45
2022-09-07T14:36:29.563Z,46.49
2022-09-07T14:41:49.533Z,47.90
2022-09-07T14:47:29.443Z,47.35
2022-09-07T14:58:35.702Z,49.05
2022-09-07T15:04:00.415Z,47.97
2022-09-07T15:09:40.251Z,48.48
2022-09-07T15:15:11.475Z,48.56
2022-09-07T15:20:37.278Z,48.96
2022-09-07T15:25:59.025Z,49.38
2022-09-07T15:38:00.306Z,48.66
2022-09-07T15:43:04.316Z,48.02
2022-09-07T15:48:27.513Z,48.07
2022-09-07T15:59:31.128Z,49.94
2022-09-07T16:04:53.349Z,50.91
2022-09-07T16:10:15.410Z,51.44
2022-09-07T16:15:45.814Z,50.63
2022-09-07T16:21:12.805Z,49.73
2022-09-07T16:26:35.249Z,48.76
2022-09-07T16:38:43.706Z,50.82
2022-09-07T16:43:21.520Z,51.42
2022-09-07T16:48:44.097Z,50.51
2022-09-07T16:54:06.518Z,50.65
2022-09-07T16:59:28.324Z,50.79
2022-09-07T17:04:51.744Z,52.21
2022-09-07T17:10:13.426Z,52.24
2022-09-07T17:15:35.758Z,52.58
2022-09-07T17:20:58.588Z,52.58
2022-09-07T17:26:21.217Z,51.59
2022-09-07T17:37:25.687Z,52.76
2022-09-07T17:48:32.425Z,52.55
2022-09-07T17:54:00.199Z,53.43
2022-09-07T18:05:03.908Z,55.03
2022-09-07T18:10:26.625Z,55.23
2022-09-07T18:15:48.379Z,55.68
2022-09-07T18:21:16.572Z,57.05
2022-09-07T18:26:39.035Z,65.32
2022-09-07T18:32:04.634Z,66.75
2022-09-07T18:37:27.346Z,63.39
2022-09-07T18:42:49.052Z,66.13
2022-09-07T18:48:13.127Z,67.35
2022-09-07T18:53:35.798Z,68.92
2022-09-07T18:58:57.801Z,70.58
2022-09-07T19:04:19.948Z,68.14
2022-09-07T19:09:41.781Z,63.34
2022-09-07T19:15:03.886Z,64.16
2022-09-07T19:20:28.671Z,61.78
2022-09-07T19:25:50.570Z,63.59
2022-09-07T19:31:12.387Z,64.97
2022-09-07T19:36:34.177Z,63.10
2022-09-07T19:41:56.234Z,63.07
2022-09-07T19:47:18.266Z,62.35
2022-09-07T19:52:40.009Z,61.66
2022-09-07T19:58:01.778Z,62.38
2022-09-07T20:03:23.574Z,62.62
2022-09-07T20:08:46.223Z,60.39
2022-09-07T20:14:08.423Z,61.50
2022-09-07T20:19:30.341Z,62.16
2022-09-07T20:24:52.285Z,61.92
2022-09-07T20:30:14.022Z,61.27
2022-09-07T20:35:35.819Z,62.91
2022-09-07T20:41:00.055Z,62.06
2022-09-07T20:46:22.848Z,61.96
2022-09-07T20:51:44.642Z,63.32
2022-09-07T20:57:06.360Z,63.46
2022-09-07T21:02:28.159Z,63.75
2022-09-07T21:07:49.916Z,63.94
2022-09-07T21:13:12.374Z,64.33
2022-09-07T21:18:34.992Z,64.05
2022-09-07T21:23:59.366Z,65.53
2022-09-07T21:29:23.925Z,66.32
2022-09-07T21:34:45.611Z,66.13
2022-09-07T21:40:08.080Z,66.72
2022-09-07T21:45:31.235Z,66.21
2022-09-07T21:50:56.903Z,65.82
2022-09-07T21:56:19.076Z,66.84
2022-09-07T22:01:40.966Z,68.08
2022-09-07T22:07:02.705Z,68.12
2022-09-07T22:12:24.423Z,68.69
2022-09-07T22:17:46.505Z,68.82
2022-09-07T22:23:08.305Z,70.07
2022-09-07T22:28:31.016Z,70.22
2022-09-07T22:33:54.167Z,69.21
2022-09-07T22:39:18.367Z,69.22
2022-09-07T22:44:40.082Z,70.51
2022-09-07T22:50:01.824Z,71.13
2022-09-07T22:55:23.532Z,71.42
2022-09-07T23:00:46.805Z,71.00
2022-09-07T23:06:08.795Z,71.46
2022-09-07T23:11:30.564Z,72.44
2022-09-07T23:16:52.318Z,74.17
2022-09-07T23:22:14.393Z,75.60
2022-09-07T23:27:36.668Z,77.62
2022-09-07T23:32:58.468Z,78.06
2022-09-07T23:38:20.154Z,80.41
2022-09-07T23:43:42.233Z,81.28
2022-09-07T23:49:04.047Z,81.25
2022-09-07T23:54:25.738Z,82.43
2022-09-07T23:59:47.580Z,82.20
